If you wish to contribute or participate in the discussions about articles you are invited to join SKYbrary as a registered user

 Actions

Dole-Tavaux Airport

From SKYbrary Wiki

LFGJ
Airport
ICAO: LFGJ – IATA: DLE
Summary
Name Dole-Tavaux Airport
Region Europe
Territory France FR.gif
Location , Franche-Comte
Serving Dole
Elevation 196.596 m
645 ft
645 ft196.596 m
Type medium airport
Coordinates 47° 2' 20.45" N, 5° 25' 38.10" E
Runways
Designator Length Width Surface ROPS
5/23 2231 m7,319.554 ft
45 m147.638 ft
ASP yes/yes


METAR
Observation LFGJ 221400Z AUTO VRB04KT CAVOK 32/15 Q1022 NOSIG
Station Dole Tavaux
Date/Time 22 July 2019 14:00:00
Wind direction °
Wind speed 04 kts
Lowest cloud amount clouds and visibility OK
Temperature 32°C
Dew point 15°C
Humidity 35%
QNH 1022 hPa
Weather condition n/a